Time;durP1;ratioP1;P1;durP2;ratioP2;P2;SDS_P1;SDS_P2;PMS_P1;PMS_P2;Temp;Humidity;BMP_temperature;BMP_pressure;BME280_temperature;BME280_humidity;BME280_pressure;Samples;Min_cycle;Max_cycle;Signal;HPM_P1;HPM_P2
2021/09/10 00:01:08;;;;;;;9.80;6.70;;;;;;;17.04;100.00;100680.78;5059762;28;20485;-78
2021/09/10 00:03:35;;;;;;;6.77;5.47;;;;;;;17.03;100.00;100688.19;5060673;28;20473;-78
2021/09/10 00:06:02;;;;;;;9.63;5.47;;;;;;;17.05;100.00;100679.66;5059721;28;20427;-78
2021/09/10 00:08:29;;;;;;;12.73;6.20;;;;;;;17.05;100.00;100683.19;5060195;28;20457;-78
2021/09/10 00:10:55;;;;;;;9.80;6.10;;;;;;;17.03;100.00;100690.94;5059487;28;20807;-78
2021/09/10 00:13:22;;;;;;;8.80;6.40;;;;;;;17.01;100.00;100684.22;5060013;28;20462;-78
2021/09/10 00:15:48;;;;;;;8.60;5.97;;;;;;;17.02;100.00;100683.09;5059610;28;20453;-78
2021/09/10 00:18:15;;;;;;;8.23;5.93;;;;;;;16.97;100.00;100688.78;5058853;28;20820;-79
2021/09/10 00:20:41;;;;;;;8.80;6.33;;;;;;;16.93;99.24;100687.88;5059672;28;20474;-79
2021/09/10 00:23:09;;;;;;;8.60;5.67;;;;;;;16.88;97.55;100683.41;5060502;28;20462;-78
2021/09/10 00:25:35;;;;;;;7.60;5.27;;;;;;;16.81;96.73;100683.19;5059745;28;20974;-79
2021/09/10 00:28:02;;;;;;;7.63;5.10;;;;;;;16.77;96.36;100687.72;5059716;28;20441;-78
2021/09/10 00:30:29;;;;;;;6.93;5.03;;;;;;;16.74;96.78;100688.44;5060049;28;20465;-78
2021/09/10 00:32:55;;;;;;;8.30;5.30;;;;;;;16.70;97.70;100688.28;5059721;28;20831;-78
2021/09/10 00:35:21;;;;;;;7.30;5.77;;;;;;;16.67;99.16;100685.41;5059090;28;20450;-79
2021/09/10 00:37:48;;;;;;;6.30;4.40;;;;;;;16.62;100.00;100691.91;5061605;28;20442;-80
2021/09/10 00:40:16;;;;;;;15.17;4.90;;;;;;;16.59;100.00;100687.09;5061753;28;20454;-79
2021/09/10 00:42:42;;;;;;;8.10;5.77;;;;;;;16.62;100.00;100692.69;5062225;28;20466;-79
2021/09/10 00:45:10;;;;;;;9.50;5.67;;;;;;;16.61;100.00;100687.56;5061670;28;20453;-79
2021/09/10 00:47:37;;;;;;;11.37;5.70;;;;;;;16.52;100.00;100682.19;5060800;28;20442;-79
2021/09/10 00:50:04;;;;;;;12.40;5.97;;;;;;;16.55;100.00;100683.44;5061288;28;20450;-79
2021/09/10 00:52:31;;;;;;;8.43;5.70;;;;;;;16.57;100.00;100684.72;5061004;28;20481;-79
2021/09/10 00:54:58;;;;;;;8.53;5.60;;;;;;;16.56;100.00;100682.31;5062498;28;20427;-79
2021/09/10 00:57:26;;;;;;;9.37;5.53;;;;;;;16.58;100.00;100680.03;5061889;28;20437;-79
2021/09/10 00:59:53;;;;;;;7.03;5.80;;;;;;;16.58;100.00;100678.09;5061671;28;20457;-79
2021/09/10 01:02:19;;;;;;;10.90;5.73;;;;;;;16.52;100.00;100684.94;5062149;28;20489;-79
2021/09/10 01:04:46;;;;;;;8.00;4.87;;;;;;;16.50;100.00;100686.41;5061489;28;20446;-79
2021/09/10 01:07:13;;;;;;;7.87;5.90;;;;;;;16.49;100.00;100682.06;5061826;28;20431;-79
2021/09/10 01:09:41;;;;;;;7.30;5.87;;;;;;;16.44;100.00;100682.28;5062057;28;20435;-79
2021/09/10 01:12:08;;;;;;;8.67;6.20;;;;;;;16.48;100.00;100688.69;5062034;28;20462;-79
2021/09/10 01:14:36;;;;;;;6.90;4.40;;;;;;;16.47;100.00;100689.81;5062111;28;20431;-79
2021/09/10 01:17:04;;;;;;;10.27;6.30;;;;;;;16.44;100.00;100685.81;5062714;28;20442;-79
2021/09/10 01:19:31;;;;;;;7.63;5.80;;;;;;;16.43;100.00;100688.91;5062302;28;20443;-79
2021/09/10 01:22:00;;;;;;;9.67;5.80;;;;;;;16.40;100.00;100688.44;5062165;28;20493;-79
2021/09/10 01:24:30;;;;;;;9.37;6.07;;;;;;;16.39;100.00;100677.84;5062674;28;20438;-79
2021/09/10 01:26:57;;;;;;;8.53;5.30;;;;;;;16.38;100.00;100682.50;5062411;28;20447;-79
2021/09/10 01:29:24;;;;;;;8.17;6.10;;;;;;;16.33;100.00;100690.91;5063007;28;20446;-79
2021/09/10 01:31:51;;;;;;;7.30;5.10;;;;;;;16.33;100.00;100688.16;5061855;28;20434;-79
2021/09/10 01:34:17;;;;;;;8.90;5.60;;;;;;;16.29;100.00;100694.66;5062282;28;20427;-79
2021/09/10 01:36:44;;;;;;;7.60;6.13;;;;;;;16.21;99.93;100698.28;5062497;28;20450;-79
2021/09/10 01:39:10;;;;;;;12.20;6.63;;;;;;;16.14;99.79;100691.41;5062244;28;20812;-79
2021/09/10 01:41:38;;;;;;;8.57;5.57;;;;;;;16.12;99.17;100692.91;5061776;28;20490;-79
2021/09/10 01:44:05;;;;;;;8.50;6.27;;;;;;;16.10;99.52;100681.50;5062267;28;20466;-79
2021/09/10 01:46:31;;;;;;;7.87;5.90;;;;;;;16.07;99.99;100682.97;5061343;28;20438;-79
2021/09/10 01:48:58;;;;;;;15.10;7.47;;;;;;;16.08;100.00;100681.03;5061353;28;20849;-79
2021/09/10 01:51:31;;;;;;;7.87;6.67;;;;;;;16.12;100.00;100695.63;5061839;28;20443;-79
2021/09/10 01:53:58;;;;;;;9.93;5.80;;;;;;;16.13;100.00;100695.28;5062376;28;20471;-79
2021/09/10 01:56:24;;;;;;;10.40;5.40;;;;;;;16.10;100.00;100690.47;5062517;28;20461;-79
2021/09/10 01:58:52;;;;;;;7.37;5.33;;;;;;;16.10;100.00;100685.03;5061791;28;20452;-79
2021/09/10 02:01:23;;;;;;;9.80;6.80;;;;;;;16.11;100.00;100691.28;5061539;28;20492;-79
2021/09/10 02:03:50;;;;;;;9.50;6.37;;;;;;;16.08;100.00;100692.75;5061523;28;20462;-79
2021/09/10 02:06:17;;;;;;;10.03;6.80;;;;;;;16.11;100.00;100694.00;5061724;28;20449;-79
2021/09/10 02:08:43;;;;;;;10.90;6.47;;;;;;;16.06;100.00;100694.22;5062808;28;20438;-79
2021/09/10 02:11:10;;;;;;;9.30;5.40;;;;;;;16.05;100.00;100687.97;5062141;28;20806;-78
2021/09/10 02:13:36;;;;;;;8.30;5.67;;;;;;;15.98;100.00;100695.91;5062086;28;20458;-79
2021/09/10 02:16:05;;;;;;;11.33;7.37;;;;;;;15.97;100.00;100693.50;5063945;28;20442;-79
2021/09/10 02:18:31;;;;;;;9.70;6.43;;;;;;;15.96;100.00;100697.38;5063043;28;20965;-78
2021/09/10 02:20:58;;;;;;;12.97;5.80;;;;;;;15.95;100.00;100695.78;5063637;28;20449;-79
2021/09/10 02:23:24;;;;;;;8.03;5.77;;;;;;;15.94;100.00;100692.25;5063100;28;20459;-79
2021/09/10 02:25:51;;;;;;;10.67;5.83;;;;;;;15.89;100.00;100693.25;5063466;28;20457;-79
2021/09/10 02:28:17;;;;;;;10.33;6.00;;;;;;;15.76;100.00;100694.31;5062970;28;20426;-79
2021/09/10 02:30:44;;;;;;;9.37;5.90;;;;;;;15.74;100.00;100699.31;5063940;28;20438;-79
2021/09/10 02:33:13;;;;;;;9.27;5.87;;;;;;;15.79;100.00;100699.09;5065326;28;20462;-79
2021/09/10 02:35:40;;;;;;;12.00;5.80;;;;;;;15.84;100.00;100687.97;5059580;28;20461;-78
2021/09/10 02:38:06;;;;;;;7.77;4.70;;;;;;;15.86;100.00;100688.44;5057746;28;20454;-78
2021/09/10 02:40:33;;;;;;;9.83;6.60;;;;;;;15.86;100.00;100688.44;5062010;28;20459;-79
2021/09/10 02:42:59;;;;;;;6.20;5.60;;;;;;;15.89;100.00;100689.69;5060964;28;20486;-79
2021/09/10 02:45:26;;;;;;;9.67;6.47;;;;;;;15.87;100.00;100684.59;5056430;28;20442;-79
2021/09/10 02:47:52;;;;;;;6.80;5.10;;;;;;;15.88;100.00;100686.19;5056693;28;20525;-79
2021/09/10 02:50:20;;;;;;;8.30;6.33;;;;;;;15.85;100.00;100683.34;5056282;28;20839;-79
2021/09/10 02:52:47;;;;;;;11.53;7.10;;;;;;;15.84;100.00;100684.44;5084876;22;20477;-69
2021/09/10 02:55:13;;;;;;;8.87;5.87;;;;;;;15.84;100.00;100679.78;5073144;28;20461;-69
2021/09/10 02:57:39;;;;;;;7.30;5.60;;;;;;;15.80;100.00;100684.31;5073428;28;20442;-69
2021/09/10 03:00:07;;;;;;;7.33;5.13;;;;;;;15.80;100.00;100672.59;5073404;28;20795;-69
2021/09/10 03:02:33;;;;;;;9.67;6.13;;;;;;;15.77;100.00;100679.53;5073347;28;20485;-69
2021/09/10 03:05:00;;;;;;;9.70;5.50;;;;;;;15.74;100.00;100677.47;5073399;28;20441;-69
2021/09/10 03:07:27;;;;;;;12.57;6.20;;;;;;;15.80;100.00;100675.31;5073325;28;20449;-69
2021/09/10 03:09:54;;;;;;;13.80;6.47;;;;;;;15.79;100.00;100671.00;5073042;28;20446;-69
2021/09/10 03:12:20;;;;;;;11.13;7.60;;;;;;;15.69;100.00;100674.94;5073217;28;20458;-69
2021/09/10 03:14:47;;;;;;;7.80;5.80;;;;;;;15.63;100.00;100676.25;5072901;28;20935;-69
2021/09/10 03:17:14;;;;;;;9.37;5.93;;;;;;;15.62;100.00;100680.09;5073254;28;20924;-70
2021/09/10 03:19:40;;;;;;;12.27;7.57;;;;;;;15.54;100.00;100676.31;5073189;28;20479;-69
2021/09/10 03:22:07;;;;;;;6.87;5.53;;;;;;;15.52;100.00;100680.50;5086592;22;20489;-69
2021/09/10 03:24:35;;;;;;;11.83;6.80;;;;;;;15.50;100.00;100689.03;5072839;28;20472;-70
2021/09/10 03:27:02;;;;;;;8.30;6.17;;;;;;;15.52;100.00;100691.41;5072603;28;20487;-70
2021/09/10 03:29:28;;;;;;;9.00;5.83;;;;;;;15.54;100.00;100681.75;5072845;28;20811;-70
2021/09/10 03:31:55;;;;;;;7.57;5.53;;;;;;;15.55;100.00;100693.47;5072966;28;20464;-69
2021/09/10 03:34:21;;;;;;;7.30;5.80;;;;;;;15.50;100.00;100685.50;5073143;28;20449;-69
2021/09/10 03:36:48;;;;;;;7.97;6.27;;;;;;;15.55;100.00;100688.03;5073082;28;20452;-70
2021/09/10 03:39:15;;;;;;;8.10;5.10;;;;;;;15.58;100.00;100687.34;5072854;28;20436;-69
2021/09/10 03:41:43;;;;;;;8.07;5.90;;;;;;;15.53;100.00;100688.34;5072936;28;20489;-71
2021/09/10 03:44:09;;;;;;;20.53;5.93;;;;;;;15.58;100.00;100698.25;5072974;28;20449;-71
2021/09/10 03:46:35;;;;;;;10.23;6.80;;;;;;;15.58;100.00;100698.25;5072919;28;20441;-70
2021/09/10 03:49:02;;;;;;;8.17;6.07;;;;;;;15.57;100.00;100692.00;5072661;28;20935;-71
2021/09/10 03:51:28;;;;;;;8.90;6.30;;;;;;;15.50;100.00;100685.50;5072871;28;20464;-71
2021/09/10 03:53:55;;;;;;;9.80;7.03;;;;;;;15.53;100.00;100684.81;5072948;28;20452;-70
2021/09/10 03:56:22;;;;;;;8.20;5.67;;;;;;;15.53;100.00;100677.41;5072635;28;20437;-70
2021/09/10 03:58:49;;;;;;;13.90;6.17;;;;;;;15.55;100.00;100672.44;5072856;28;20484;-70
2021/09/10 04:01:16;;;;;;;10.37;6.33;;;;;;;15.46;100.00;100681.81;5072826;28;20452;-71
2021/09/10 04:03:42;;;;;;;8.40;5.83;;;;;;;15.49;100.00;100695.59;5072870;28;20455;-71
2021/09/10 04:06:09;;;;;;;8.47;5.90;;;;;;;15.50;100.00;100699.16;5072503;28;20436;-70
2021/09/10 04:08:36;;;;;;;7.67;5.97;;;;;;;15.51;100.00;100698.81;5072711;28;20452;-71
2021/09/10 04:11:02;;;;;;;7.97;5.50;;;;;;;15.52;100.00;100699.59;5072762;28;20440;-70
2021/09/10 04:13:29;;;;;;;10.03;5.80;;;;;;;15.48;100.00;100704.91;5072686;28;20457;-71
2021/09/10 04:15:57;;;;;;;13.40;6.80;;;;;;;15.50;100.00;100701.88;5072282;28;20465;-70
2021/09/10 04:18:23;;;;;;;9.10;6.03;;;;;;;15.48;100.00;100707.66;5072789;28;20442;-70
2021/09/10 04:20:49;;;;;;;9.37;6.60;;;;;;;15.39;100.00;100702.25;5073015;28;20437;-70
2021/09/10 04:23:16;;;;;;;8.93;6.23;;;;;;;15.33;100.00;100706.28;5072200;28;21004;-71
2021/09/10 04:25:42;;;;;;;10.27;6.40;;;;;;;15.25;100.00;100722.72;5072347;28;20931;-71
2021/09/10 04:28:10;;;;;;;9.00;5.57;;;;;;;15.19;100.00;100724.84;5072641;28;20813;-70
2021/09/10 04:30:36;;;;;;;13.23;7.80;;;;;;;15.16;100.00;100728.22;5072641;28;20476;-70
2021/09/10 04:33:05;;;;;;;10.90;6.80;;;;;;;15.20;100.00;100736.56;5072468;28;20453;-70
2021/09/10 04:35:31;;;;;;;10.20;6.20;;;;;;;15.21;100.00;100733.47;5072547;28;20445;-71
2021/09/10 04:37:58;;;;;;;9.40;5.90;;;;;;;15.22;100.00;100735.06;5072552;28;20498;-70
2021/09/10 04:40:24;;;;;;;10.30;5.50;;;;;;;15.24;100.00;100732.03;5075143;28;20440;-70
2021/09/10 04:42:51;;;;;;;7.97;5.63;;;;;;;15.24;100.00;100726.59;5075440;28;20496;-69
2021/09/10 04:45:18;;;;;;;7.73;5.47;;;;;;;15.22;100.00;100737.00;5075661;28;20441;-71
2021/09/10 04:47:44;;;;;;;9.20;5.63;;;;;;;15.20;100.00;100731.91;5075512;28;20452;-71
2021/09/10 04:50:14;;;;;;;11.00;5.83;;;;;;;15.28;100.00;100733.00;5075516;28;20441;-70
2021/09/10 04:52:41;;;;;;;7.87;5.50;;;;;;;15.27;100.00;100729.47;5075339;28;20831;-71
2021/09/10 04:55:09;;;;;;;9.60;6.27;;;;;;;15.32;100.00;100734.72;5075411;28;20448;-70
2021/09/10 04:57:36;;;;;;;9.40;7.10;;;;;;;15.35;100.00;100728.59;5075562;28;20442;-70
2021/09/10 05:00:03;;;;;;;7.87;5.93;;;;;;;15.39;100.00;100735.00;5075614;28;20445;-69
2021/09/10 05:02:30;;;;;;;9.87;6.57;;;;;;;15.38;100.00;100727.94;5075561;28;20489;-71
2021/09/10 05:04:56;;;;;;;7.23;5.80;;;;;;;15.40;100.00;100730.31;5075584;28;20449;-69
2021/09/10 05:07:24;;;;;;;8.73;5.63;;;;;;;15.39;100.00;100726.81;5075375;28;20430;-70
2021/09/10 05:09:50;;;;;;;10.47;6.07;;;;;;;15.45;100.00;100732.06;5075552;28;20441;-70
2021/09/10 05:12:17;;;;;;;9.83;7.07;;;;;;;15.46;100.00;100739.16;5075425;28;20496;-71
2021/09/10 05:14:43;;;;;;;10.80;6.93;;;;;;;15.37;100.00;100740.00;5075437;28;20445;-70
2021/09/10 05:17:10;;;;;;;9.80;5.97;;;;;;;15.36;100.00;100740.31;5075446;28;20433;-69
2021/09/10 05:19:37;;;;;;;13.47;7.13;;;;;;;15.36;100.00;100738.41;5075293;28;20511;-70
2021/09/10 05:22:04;;;;;;;7.53;5.80;;;;;;;15.39;100.00;100737.72;5074682;28;20908;-68
2021/09/10 05:24:31;;;;;;;10.10;6.43;;;;;;;15.43;100.00;100740.59;5074926;28;20962;-71
2021/09/10 05:26:58;;;;;;;11.33;6.13;;;;;;;15.47;100.00;100735.28;5075116;28;20445;-69
2021/09/10 05:29:24;;;;;;;12.50;6.23;;;;;;;15.53;100.00;100740.22;5075148;28;20445;-69
2021/09/10 05:31:51;;;;;;;8.87;4.73;;;;;;;15.61;100.00;100735.84;5074517;28;20508;-69
2021/09/10 05:34:17;;;;;;;9.60;5.40;;;;;;;15.68;100.00;100741.63;5075030;28;20452;-70
2021/09/10 05:36:44;;;;;;;8.07;5.77;;;;;;;15.72;100.00;100741.75;5074834;28;20437;-70
2021/09/10 05:39:10;;;;;;;7.53;6.20;;;;;;;15.81;100.00;100750.69;5074399;28;20845;-68
2021/09/10 05:41:38;;;;;;;10.93;6.90;;;;;;;15.87;100.00;100754.81;5074504;28;20894;-70
2021/09/10 05:44:04;;;;;;;16.03;7.10;;;;;;;15.94;100.00;100757.00;5074450;28;21020;-70
2021/09/10 05:46:31;;;;;;;10.67;7.10;;;;;;;16.01;100.00;100749.06;5074466;28;20821;-70
2021/09/10 05:48:57;;;;;;;9.57;6.90;;;;;;;16.06;100.00;100746.16;5074688;28;20448;-71
2021/09/10 05:51:24;;;;;;;11.87;7.93;;;;;;;16.10;100.00;100747.06;5074255;28;20456;-70
2021/09/10 05:53:50;;;;;;;11.07;6.97;;;;;;;16.17;100.00;100747.34;5074652;28;20445;-69
2021/09/10 05:56:17;;;;;;;12.37;7.83;;;;;;;16.22;100.00;100746.34;5074614;28;20445;-70
2021/09/10 05:58:45;;;;;;;7.97;5.60;;;;;;;16.29;100.00;100755.59;5074475;28;20446;-70
2021/09/10 06:01:11;;;;;;;11.90;7.80;;;;;;;16.39;100.00;100749.72;5074412;28;20437;-70
2021/09/10 06:03:37;;;;;;;9.93;7.50;;;;;;;16.48;100.00;100749.63;5074358;28;20915;-71
2021/09/10 06:06:04;;;;;;;12.00;7.10;;;;;;;16.60;100.00;100755.16;5074220;28;20943;-71
2021/09/10 06:08:30;;;;;;;10.90;7.67;;;;;;;16.70;100.00;100751.19;5074340;28;20444;-74
2021/09/10 06:10:57;;;;;;;12.90;8.60;;;;;;;16.85;100.00;100763.44;5074337;28;20445;-71
2021/09/10 06:13:31;;;;;;;14.53;8.70;;;;;;;17.04;100.00;100765.63;5074251;28;20535;-71
2021/09/10 06:15:59;;;;;;;19.47;8.67;;;;;;;17.25;100.00;100760.06;5074010;28;20447;-72
2021/09/10 06:18:25;;;;;;;14.07;9.40;;;;;;;17.54;100.00;100759.84;5073941;28;20942;-71
2021/09/10 06:20:55;;;;;;;15.80;8.77;;;;;;;17.77;100.00;100768.41;5074074;28;20437;-71
2021/09/10 06:23:22;;;;;;;14.43;8.63;;;;;;;17.92;100.00;100769.63;5073597;28;20567;-71
2021/09/10 06:25:48;;;;;;;17.97;8.73;;;;;;;18.06;100.00;100771.97;5074084;28;20437;-72
2021/09/10 06:28:15;;;;;;;15.93;9.30;;;;;;;18.20;100.00;100774.38;5073866;28;20437;-71
2021/09/10 06:30:41;;;;;;;16.60;9.20;;;;;;;18.30;100.00;100787.56;5073861;28;20438;-73
2021/09/10 06:33:09;;;;;;;10.33;7.17;;;;;;;18.41;100.00;100781.22;5073753;28;20472;-71
2021/09/10 06:35:36;;;;;;;13.27;8.47;;;;;;;18.49;100.00;100787.72;5073745;28;20461;-71
2021/09/10 06:38:03;;;;;;;12.27;7.97;;;;;;;18.55;100.00;100780.84;5073728;28;20460;-73
2021/09/10 06:40:29;;;;;;;16.50;7.80;;;;;;;18.64;100.00;100788.94;5073641;28;20448;-72
2021/09/10 06:42:56;;;;;;;14.00;8.53;;;;;;;18.73;100.00;100792.34;5073492;28;20487;-72
2021/09/10 06:45:23;;;;;;;13.43;8.73;;;;;;;18.92;100.00;100793.59;5073683;28;20460;-72
2021/09/10 06:47:50;;;;;;;15.73;9.03;;;;;;;19.07;100.00;100801.06;5073682;28;20541;-72
2021/09/10 06:50:18;;;;;;;10.80;8.03;;;;;;;19.23;100.00;100793.63;5073446;28;20441;-71
2021/09/10 06:52:44;;;;;;;14.40;8.80;;;;;;;19.33;100.00;100798.56;5073389;28;20580;-71
2021/09/10 06:55:11;;;;;;;12.97;8.33;;;;;;;19.44;100.00;100804.34;5073410;28;20468;-71
2021/09/10 06:57:38;;;;;;;13.27;8.17;;;;;;;19.52;100.00;100800.63;5073429;28;20441;-71
2021/09/10 07:00:07;;;;;;;11.87;8.57;;;;;;;19.56;100.00;100789.69;5073304;28;20456;-70
2021/09/10 07:02:33;;;;;;;13.73;8.20;;;;;;;19.65;100.00;100793.88;5072455;28;20461;-71
2021/09/10 07:05:00;;;;;;;11.93;7.90;;;;;;;19.80;100.00;100799.72;5073339;28;20446;-70
2021/09/10 07:07:28;;;;;;;9.43;6.70;;;;;;;19.90;99.87;100799.16;5073242;28;20449;-70
2021/09/10 07:09:54;;;;;;;10.60;7.20;;;;;;;19.97;99.23;100804.81;5073708;28;20516;-70
2021/09/10 07:12:21;;;;;;;18.37;7.67;;;;;;;20.06;99.28;100812.88;5073294;28;20462;-71
2021/09/10 07:14:48;;;;;;;14.87;7.53;;;;;;;20.13;99.15;100821.25;5073160;28;20441;-71
2021/09/10 07:17:14;;;;;;;7.83;6.10;;;;;;;20.25;98.47;100818.38;5073216;28;20456;-71
2021/09/10 07:19:41;;;;;;;12.17;8.17;;;;;;;20.35;97.08;100817.78;5073192;28;20450;-71
2021/09/10 07:22:07;;;;;;;12.67;6.50;;;;;;;20.50;95.87;100821.69;5072915;28;20484;-71
2021/09/10 07:24:35;;;;;;;8.20;6.20;;;;;;;20.63;95.13;100827.84;5072760;28;20477;-71
2021/09/10 07:27:02;;;;;;;12.03;6.63;;;;;;;20.69;95.17;100829.13;5073007;28;20442;-70
2021/09/10 07:29:28;;;;;;;10.47;6.57;;;;;;;20.75;94.66;100833.16;5072983;28;20448;-70
2021/09/10 07:31:55;;;;;;;9.67;5.97;;;;;;;20.84;94.21;100830.97;5072057;28;20461;-71
2021/09/10 07:34:22;;;;;;;7.13;5.93;;;;;;;20.95;94.06;100847.72;5060011;28;20433;-70
2021/09/10 07:36:49;;;;;;;8.97;7.00;;;;;;;21.07;93.38;100842.06;5072745;28;20488;-70
2021/09/10 07:39:17;;;;;;;9.47;6.23;;;;;;;21.21;92.18;100844.25;5072921;28;20507;-70
2021/09/10 07:41:45;;;;;;;10.97;7.27;;;;;;;;;;5072799;28;20487;-71
2021/09/10 07:44:17;;;;;;;11.80;6.17;;;;;;;21.42;91.01;100844.63;5058008;28;20820;-70
2021/09/10 07:46:44;;;;;;;9.33;6.17;;;;;;;21.48;91.60;100842.38;5062861;28;20448;-71
2021/09/10 07:49:13;;;;;;;15.30;5.53;;;;;;;21.52;92.60;100831.41;5067129;28;20521;-69
2021/09/10 07:51:39;;;;;;;11.30;5.90;;;;;;;21.60;91.79;100844.13;5051478;28;20462;-70
2021/09/10 07:54:07;;;;;;;7.70;4.30;;;;;;;21.69;91.93;100836.38;5051555;28;20450;-69
2021/09/10 07:56:34;;;;;;;6.60;5.20;;;;;;;21.75;91.92;100829.41;5052701;28;20443;-69
2021/09/10 07:59:01;;;;;;;7.57;5.10;;;;;;;21.82;91.97;100846.03;5057521;28;20437;-69
2021/09/10 08:01:28;;;;;;;8.97;4.93;;;;;;;21.87;90.99;100843.00;5072607;28;20472;-69
2021/09/10 08:03:55;;;;;;;7.50;5.37;;;;;;;21.99;89.87;100841.16;5072468;28;20504;-68
2021/09/10 08:06:21;;;;;;;5.50;4.20;;;;;;;22.13;89.95;100841.41;5072685;28;20517;-68
2021/09/10 08:08:49;;;;;;;8.20;5.67;;;;;;;22.20;88.29;100841.50;5072612;28;20451;-68
2021/09/10 08:11:15;;;;;;;8.33;5.27;;;;;;;22.33;88.32;100842.88;5072513;28;20453;-68
2021/09/10 08:13:42;;;;;;;8.70;5.23;;;;;;;22.48;86.76;100843.03;5074276;28;20455;-69
2021/09/10 08:16:10;;;;;;;6.93;4.53;;;;;;;22.59;86.46;100839.25;5076363;28;20441;-67
2021/09/10 08:18:36;;;;;;;9.13;5.70;;;;;;;22.62;86.48;100837.69;5076325;28;20452;-69
2021/09/10 08:21:03;;;;;;;7.47;5.53;;;;;;;22.68;85.43;100836.19;5076287;28;20448;-68
2021/09/10 08:23:30;;;;;;;6.93;4.47;;;;;;;22.81;85.83;100847.78;5075943;28;20865;-69
2021/09/10 08:25:56;;;;;;;5.53;4.50;;;;;;;22.82;85.21;100847.38;5076216;28;20449;-69
2021/09/10 08:28:23;;;;;;;5.30;4.00;;;;;;;22.90;85.39;100849.09;5076102;28;20433;-68
2021/09/10 08:30:49;;;;;;;6.97;4.90;;;;;;;22.97;85.98;100844.81;5076000;28;20801;-69
2021/09/10 08:33:18;;;;;;;8.13;5.73;;;;;;;23.01;85.53;100851.16;5075866;28;20461;-69
2021/09/10 08:35:45;;;;;;;6.90;4.83;;;;;;;22.98;86.75;100849.19;5075880;28;20448;-69
2021/09/10 08:38:11;;;;;;;8.87;5.27;;;;;;;23.03;84.89;100843.31;5075585;28;21015;-69
2021/09/10 08:40:38;;;;;;;8.77;4.80;;;;;;;23.11;85.37;100842.19;5075925;28;20437;-68
2021/09/10 08:43:04;;;;;;;8.13;4.90;;;;;;;23.19;84.63;100841.06;5075682;28;20475;-68
2021/09/10 08:45:32;;;;;;;8.57;5.10;;;;;;;23.21;84.60;100846.22;5075767;28;20449;-69
2021/09/10 08:47:58;;;;;;;8.17;4.80;;;;;;;23.33;84.23;100846.75;5075757;28;20451;-69
2021/09/10 08:50:26;;;;;;;12.40;5.60;;;;;;;23.33;84.78;100851.47;5075864;28;20479;-69
2021/09/10 08:52:53;;;;;;;10.30;5.60;;;;;;;23.46;83.88;100851.97;5075260;28;20823;-69
2021/09/10 08:55:20;;;;;;;8.27;4.70;;;;;;;23.59;83.67;100862.34;5075812;28;20822;-70
2021/09/10 08:57:48;;;;;;;8.20;4.03;;;;;;;23.69;82.97;100858.13;5075732;28;20441;-71
2021/09/10 09:00:16;;;;;;;8.37;4.87;;;;;;;23.73;82.67;100858.13;5075563;28;20449;-70
2021/09/10 09:02:43;;;;;;;7.80;3.80;;;;;;;23.74;83.07;100866.06;5075187;28;21026;-68
2021/09/10 09:05:10;;;;;;;10.53;4.60;;;;;;;23.75;82.56;100862.13;5075221;28;20484;-67
2021/09/10 09:07:40;;;;;;;10.10;5.10;;;;;;;23.79;81.82;100865.69;5075519;28;20448;-69
2021/09/10 09:10:07;;;;;;;6.83;5.17;;;;;;;23.82;82.16;100864.94;5075366;28;20442;-68
2021/09/10 09:12:34;;;;;;;7.13;5.37;;;;;;;23.91;82.00;100868.16;5074885;28;20465;-68
2021/09/10 09:15:03;;;;;;;16.77;5.33;;;;;;;24.01;83.11;100877.72;5075337;28;20456;-69
2021/09/10 09:17:32;;;;;;;4.70;4.20;;;;;;;24.04;80.13;100868.66;5075109;28;20449;-69
2021/09/10 09:20:13;;;;;;;7.80;5.17;;;;;;;24.17;79.36;100869.09;5074917;28;20821;-68
2021/09/10 09:22:55;;;;;;;10.17;4.87;;;;;;;24.22;80.15;100874.28;5075074;28;20515;-67
2021/09/10 09:25:23;;;;;;;6.13;4.10;;;;;;;24.28;79.23;100878.25;5073731;28;20481;-69
2021/09/10 09:27:50;;;;;;;7.80;4.67;;;;;;;24.30;80.23;100873.13;5075074;28;20972;-69
2021/09/10 09:30:35;;;;;;;6.37;4.67;;;;;;;24.31;80.30;100869.19;5075038;28;20449;-68
2021/09/10 09:33:02;;;;;;;6.47;4.27;;;;;;;24.45;80.20;100874.03;5074806;28;20523;-69
2021/09/10 09:35:31;;;;;;;7.43;4.63;;;;;;;24.65;78.77;100866.19;5074916;28;20448;-69
2021/09/10 09:38:00;;;;;;;8.40;3.70;;;;;;;24.78;77.83;100872.97;5074622;28;20978;-69
2021/09/10 09:40:34;;;;;;;5.97;4.13;;;;;;;24.82;76.81;100875.75;5074777;28;20441;-69
2021/09/10 09:43:11;;;;;;;6.33;4.47;;;;;;;24.86;77.99;100874.56;5074710;28;20465;-68
2021/09/10 09:45:38;;;;;;;9.20;3.40;;;;;;;24.92;77.42;100883.28;5074818;28;20517;-69
2021/09/10 09:48:09;;;;;;;5.10;4.27;;;;;;;25.00;78.28;100876.59;5074636;28;20451;-68
2021/09/10 09:50:36;;;;;;;6.00;4.07;;;;;;;25.07;78.04;100873.06;5074729;28;20460;-69
2021/09/10 09:53:05;;;;;;;5.70;4.10;;;;;;;25.14;78.08;100881.41;5074679;28;20461;-69
2021/09/10 09:55:33;;;;;;;5.80;3.80;;;;;;;25.22;77.65;100874.69;5074488;28;20456;-70
2021/09/10 09:58:03;;;;;;;7.43;4.27;;;;;;;25.34;78.04;100879.84;5074443;28;20512;-69
2021/09/10 10:00:30;;;;;;;3.60;3.10;;;;;;;25.32;80.31;100876.69;5074076;28;20946;-69
2021/09/10 10:02:57;;;;;;;8.67;4.70;;;;;;;25.38;79.64;100882.63;5074410;28;20846;-68
2021/09/10 10:05:24;;;;;;;8.80;4.70;;;;;;;25.53;77.50;100883.41;5074045;28;20483;-69
2021/09/10 10:07:56;;;;;;;8.50;4.77;;;;;;;25.59;77.32;100879.09;5074296;28;20447;-68
2021/09/10 10:10:26;;;;;;;6.20;4.73;;;;;;;25.60;75.10;100875.91;5074381;28;20426;-69
2021/09/10 10:12:55;;;;;;;5.70;3.97;;;;;;;25.68;76.37;100882.25;5074097;28;20836;-69
2021/09/10 10:15:24;;;;;;;5.30;4.40;;;;;;;25.78;76.19;100880.69;5074138;28;20448;-70
2021/09/10 10:17:51;;;;;;;6.63;4.73;;;;;;;25.87;75.12;100873.53;5074047;28;20442;-69
2021/09/10 10:20:49;;;;;;;4.00;3.60;;;;;;;25.92;75.92;100883.44;5074142;28;20446;-69
2021/09/10 10:23:56;;;;;;;4.23;3.83;;;;;;;26.06;75.57;100882.63;5073988;28;20480;-69
2021/09/10 10:26:45;;;;;;;6.20;3.90;;;;;;;26.13;74.46;100883.41;5074095;28;20441;-69
2021/09/10 10:29:15;;;;;;;4.37;3.17;;;;;;;26.12;73.95;100884.59;5067453;28;20484;-69
2021/09/10 10:32:12;;;;;;;8.13;5.20;;;;;;;26.22;74.24;100882.97;5073874;28;20515;-69
2021/09/10 10:35:14;;;;;;;6.10;3.67;;;;;;;26.30;71.63;100879.00;4992535;28;20990;-69
2021/09/10 10:37:42;;;;;;;5.00;3.77;;;;;;;26.38;70.95;100886.09;5073645;28;20456;-70
2021/09/10 10:40:35;;;;;;;5.00;4.00;;;;;;;26.41;69.45;100871.41;5073652;28;20475;-69
2021/09/10 10:43:05;;;;;;;5.30;3.67;;;;;;;26.46;69.66;100869.44;5073659;28;20476;-68
2021/09/10 10:46:14;;;;;;;8.77;3.73;;;;;;;26.53;71.38;100874.97;5073226;28;20481;-69
2021/09/10 10:48:45;;;;;;;5.23;3.90;;;;;;;26.59;71.35;100868.56;5073621;28;20452;-69
2021/09/10 10:51:41;;;;;;;5.97;3.87;;;;;;;26.77;70.58;100868.50;5073467;28;20535;-68
2021/09/10 10:54:17;;;;;;;11.17;4.20;;;;;;;27.06;69.55;100873.91;5073685;28;20446;-69
2021/09/10 10:56:45;;;;;;;8.80;4.37;;;;;;;27.24;67.07;100866.25;5073655;28;20447;-71
2021/09/10 10:59:33;;;;;;;8.33;4.07;;;;;;;27.34;67.19;100868.16;5073575;28;20441;-70
2021/09/10 11:02:32;;;;;;;6.27;4.30;;;;;;;27.59;68.30;100872.75;5073247;28;20577;-71
2021/09/10 11:05:01;;;;;;;6.00;4.40;;;;;;;27.69;66.72;100857.94;4992014;28;20519;-69
2021/09/10 11:07:30;;;;;;;5.67;4.00;;;;;;;27.81;66.62;100856.66;4991916;28;20464;-70
2021/09/10 11:10:00;;;;;;;10.53;4.13;;;;;;;27.91;66.89;100862.13;5013698;28;20446;-70
2021/09/10 11:12:27;;;;;;;6.13;4.00;;;;;;;28.11;65.92;100851.19;5073150;28;20461;-69
2021/09/10 11:14:55;;;;;;;5.30;3.97;;;;;;;28.66;65.93;100863.28;5073246;28;20820;-69
2021/09/10 11:17:26;;;;;;;6.00;4.20;;;;;;;28.81;62.80;100858.28;5073094;28;20456;-69
2021/09/10 11:19:55;;;;;;;5.67;3.20;;;;;;;29.38;62.11;100855.44;5073213;28;20453;-70
2021/09/10 11:22:23;;;;;;;8.20;4.27;;;;;;;29.25;60.49;100859.25;5072969;28;20552;-71
2021/09/10 11:24:49;;;;;;;6.07;3.80;;;;;;;29.37;59.93;100850.31;5072924;28;20504;-71